createdAt,value
2022-08-07T00:02:40.471Z,100378.81
2022-08-07T00:05:05.965Z,100377.59
2022-08-07T00:07:40.497Z,100373.82
2022-08-07T00:10:25.882Z,100380.39
2022-08-07T00:12:57.852Z,100379.58
2022-08-07T00:15:38.633Z,100380.14
2022-08-07T00:18:19.208Z,100381.35
2022-08-07T00:20:50.005Z,100388.23
2022-08-07T00:23:21.075Z,100386.32
2022-08-07T00:25:52.093Z,100385.81
2022-08-07T00:28:31.791Z,100381.77
2022-08-07T00:31:06.187Z,100385.30
2022-08-07T00:33:36.295Z,100382.04
2022-08-07T00:36:06.810Z,100380.52
2022-08-07T00:38:36.558Z,100381.63
2022-08-07T00:41:09.913Z,100387.20
2022-08-07T00:43:58.882Z,100383.48
2022-08-07T00:46:33.144Z,100379.39
2022-08-07T00:49:03.606Z,100377.89
2022-08-07T00:51:58.150Z,100379.43
2022-08-07T00:54:22.729Z,100382.54
2022-08-07T00:56:52.003Z,100379.84
2022-08-07T00:59:35.068Z,100384.69
2022-08-07T01:02:14.088Z,100381.88
2022-08-07T01:04:58.862Z,100379.22
2022-08-07T01:07:29.631Z,100378.50
2022-08-07T01:10:04.433Z,100382.06
2022-08-07T01:12:37.168Z,100376.87
2022-08-07T01:15:11.920Z,100388.84
2022-08-07T01:17:46.627Z,100385.40
2022-08-07T01:20:17.439Z,100384.11
2022-08-07T01:23:00.478Z,100383.04
2022-08-07T01:25:40.579Z,100380.19
2022-08-07T01:28:24.291Z,100379.30
2022-08-07T01:30:55.953Z,100376.45
2022-08-07T01:33:30.048Z,100373.45
2022-08-07T01:36:15.079Z,100379.16
2022-08-07T01:38:46.072Z,100377.55
2022-08-07T01:41:25.922Z,100376.98
2022-08-07T01:43:55.895Z,100377.02
2022-08-07T01:46:25.535Z,100378.79
2022-08-07T01:48:54.415Z,100377.91
2022-08-07T01:52:04.109Z,100377.88
2022-08-07T01:54:33.093Z,100378.81
2022-08-07T01:57:08.483Z,100378.85
2022-08-07T01:59:45.230Z,100384.17
2022-08-07T02:02:32.585Z,100383.91
2022-08-07T02:05:15.773Z,100382.98
2022-08-07T02:08:07.973Z,100384.58
2022-08-07T02:10:42.242Z,100388.48
2022-08-07T02:13:12.927Z,100389.83
2022-08-07T02:15:43.364Z,100392.98
2022-08-07T02:18:13.935Z,100390.24
2022-08-07T02:20:48.682Z,100390.09
2022-08-07T02:23:23.999Z,100395.78
2022-08-07T02:26:30.589Z,100392.55
2022-08-07T02:28:45.487Z,100398.08
2022-08-07T02:31:28.670Z,100398.02
2022-08-07T02:34:03.493Z,100397.20
2022-08-07T02:36:33.960Z,100398.94
2022-08-07T02:39:16.043Z,100401.27
2022-08-07T02:41:54.492Z,100403.59
2022-08-07T02:44:26.793Z,100402.86
2022-08-07T02:46:58.657Z,100402.54
2022-08-07T02:49:57.466Z,100404.19
2022-08-07T02:52:32.263Z,100402.69
2022-08-07T02:55:27.784Z,100403.77
2022-08-07T02:58:06.576Z,100402.57
2022-08-07T03:00:40.639Z,100405.55
2022-08-07T03:03:21.219Z,100410.01
2022-08-07T03:05:54.619Z,100414.91
2022-08-07T03:08:26.946Z,100416.00
2022-08-07T03:10:59.603Z,100416.20
2022-08-07T03:13:28.740Z,100422.48
2022-08-07T03:16:08.262Z,100423.28
2022-08-07T03:18:37.605Z,100422.86
2022-08-07T03:21:08.837Z,100424.19
2022-08-07T03:24:19.661Z,100425.86
2022-08-07T03:26:33.117Z,100423.45
2022-08-07T03:29:05.697Z,100423.81
2022-08-07T03:31:46.137Z,100423.58
2022-08-07T03:34:18.660Z,100428.36
2022-08-07T03:36:54.138Z,100423.45
2022-08-07T03:39:46.456Z,100420.71
2022-08-07T03:42:14.159Z,100418.21
2022-08-07T03:44:53.067Z,100419.29
2022-08-07T03:47:23.264Z,100414.84
2022-08-07T03:49:53.647Z,100422.32
2022-08-07T03:52:26.571Z,100425.59
2022-08-07T03:55:06.241Z,100426.79
2022-08-07T03:58:34.913Z,100428.37
2022-08-07T04:00:30.190Z,100431.88
2022-08-07T04:03:03.769Z,100433.56
2022-08-07T04:05:41.137Z,100432.11
2022-08-07T04:08:16.159Z,100432.21
2022-08-07T04:10:54.074Z,100432.14
2022-08-07T04:14:09.359Z,100436.17
2022-08-07T04:16:31.254Z,100438.63
2022-08-07T04:19:04.208Z,100442.80
2022-08-07T04:21:59.500Z,100443.04
2022-08-07T04:24:39.121Z,100446.88
2022-08-07T04:27:15.093Z,100449.06
2022-08-07T04:30:02.313Z,100449.45
2022-08-07T04:32:34.217Z,100450.33
2022-08-07T04:35:07.187Z,100454.41
2022-08-07T04:38:02.778Z,100453.77
2022-08-07T04:40:31.387Z,100457.07
2022-08-07T04:43:03.615Z,100462.36
2022-08-07T04:45:58.118Z,100467.70
2022-08-07T04:48:44.861Z,100466.11
2022-08-07T04:51:27.078Z,100467.61
2022-08-07T04:54:06.161Z,100464.61
2022-08-07T04:58:11.442Z,100466.96
2022-08-07T05:00:09.734Z,100467.59
2022-08-07T05:02:39.369Z,100471.69
2022-08-07T05:05:52.561Z,100471.73
2022-08-07T05:08:59.519Z,100467.25
2022-08-07T05:11:19.211Z,100471.52
2022-08-07T05:14:55.794Z,100471.52
2022-08-07T05:16:47.036Z,100470.64
2022-08-07T05:19:32.625Z,100468.25
2022-08-07T05:22:26.779Z,100470.05
2022-08-07T05:24:59.685Z,100471.59
2022-08-07T05:28:16.140Z,100473.52
2022-08-07T05:30:29.993Z,100472.23
2022-08-07T05:33:03.422Z,100472.13
2022-08-07T05:35:41.897Z,100471.10
2022-08-07T05:38:12.051Z,100480.52
2022-08-07T05:40:51.416Z,100481.45
2022-08-07T05:43:43.363Z,100481.36
2022-08-07T05:46:12.321Z,100485.87
2022-08-07T05:48:58.421Z,100488.69
2022-08-07T05:51:31.686Z,100490.91
2022-08-07T05:54:14.068Z,100489.02
2022-08-07T05:56:54.300Z,100490.70
2022-08-07T05:59:25.222Z,100489.26
2022-08-07T06:01:58.355Z,100490.79
2022-08-07T06:04:30.433Z,100499.08
2022-08-07T06:07:04.410Z,100501.02
2022-08-07T06:10:04.370Z,100499.55
2022-08-07T06:12:27.959Z,100499.81
2022-08-07T06:15:05.732Z,100498.98
2022-08-07T06:17:37.580Z,100498.95
2022-08-07T06:20:12.344Z,100496.91
2022-08-07T06:22:50.777Z,100491.02
2022-08-07T06:25:34.897Z,100501.59
2022-08-07T06:28:05.913Z,100500.20
2022-08-07T06:30:41.357Z,100497.69
2022-08-07T06:33:16.600Z,100499.79
2022-08-07T06:36:06.207Z,100499.10
2022-08-07T06:38:35.338Z,100498.51
2022-08-07T06:41:12.901Z,100502.94
2022-08-07T06:43:46.578Z,100501.48
2022-08-07T06:46:35.265Z,100504.30
2022-08-07T06:49:05.494Z,100505.41
2022-08-07T06:51:49.572Z,100504.69
2022-08-07T06:55:30.063Z,100503.67
2022-08-07T06:57:12.728Z,100511.00
2022-08-07T07:00:14.716Z,100512.28
2022-08-07T07:02:54.050Z,100517.29
2022-08-07T07:06:02.681Z,100514.67
2022-08-07T07:08:18.166Z,100512.02
2022-08-07T07:10:56.438Z,100511.77
2022-08-07T07:13:55.706Z,100515.32
2022-08-07T07:16:27.454Z,100517.48
2022-08-07T07:19:41.015Z,100526.81
2022-08-07T07:22:05.101Z,100522.57
2022-08-07T07:24:56.573Z,100528.00
2022-08-07T07:27:35.779Z,100530.13
2022-08-07T07:30:32.610Z,100531.67
2022-08-07T07:33:11.499Z,100533.55
2022-08-07T07:36:04.483Z,100537.05
2022-08-07T07:38:34.942Z,100544.64
2022-08-07T07:41:09.199Z,100545.19
2022-08-07T07:44:14.040Z,100546.45
2022-08-07T07:46:37.730Z,100549.36
2022-08-07T07:50:34.581Z,100546.42
2022-08-07T07:52:16.146Z,100552.72
2022-08-07T07:54:51.165Z,100556.25
2022-08-07T07:57:43.634Z,100552.58
2022-08-07T08:00:21.205Z,100551.72
2022-08-07T08:03:05.505Z,100553.99
2022-08-07T08:05:42.751Z,100557.16
2022-08-07T08:08:34.549Z,100554.89
2022-08-07T08:11:16.439Z,100552.38
2022-08-07T08:13:59.600Z,100546.39
2022-08-07T08:16:35.500Z,100546.55
2022-08-07T08:19:09.664Z,100555.96
2022-08-07T08:22:08.142Z,100554.18
2022-08-07T08:25:18.155Z,100548.49
2022-08-07T08:27:57.128Z,100555.88
2022-08-07T08:30:27.671Z,100553.89
2022-08-07T08:33:01.778Z,100555.60
2022-08-07T08:35:39.560Z,100555.69
2022-08-07T08:38:18.136Z,100557.23
2022-08-07T08:40:56.971Z,100558.17
2022-08-07T08:43:42.122Z,100560.51
2022-08-07T08:46:26.687Z,100567.20
2022-08-07T08:49:05.110Z,100566.70
2022-08-07T08:51:49.515Z,100567.78
2022-08-07T08:54:38.522Z,100562.22
2022-08-07T08:57:13.548Z,100562.34
2022-08-07T08:59:53.770Z,100552.92
2022-08-07T09:02:37.796Z,100552.58
2022-08-07T09:05:32.040Z,100550.88
2022-08-07T09:08:28.109Z,100551.98
2022-08-07T09:11:34.960Z,100552.20
2022-08-07T09:14:13.231Z,100552.00
2022-08-07T09:17:02.254Z,100551.14
2022-08-07T09:19:53.456Z,100544.89
2022-08-07T09:24:32.441Z,100549.09
2022-08-07T09:25:53.401Z,100548.10
2022-08-07T09:30:00.815Z,100547.65
2022-08-07T09:31:38.276Z,100537.67
2022-08-07T09:34:15.936Z,100540.60
2022-08-07T09:36:55.571Z,100541.86
2022-08-07T09:39:53.800Z,100543.88
2022-08-07T09:42:47.448Z,100541.10
2022-08-07T09:47:52.478Z,100536.11
2022-08-07T09:48:30.923Z,100533.79
2022-08-07T09:52:16.212Z,100535.80
2022-08-07T09:54:40.084Z,100534.91
2022-08-07T09:57:46.463Z,100533.65
2022-08-07T10:00:19.592Z,100525.41
2022-08-07T10:04:03.862Z,100527.23
2022-08-07T10:06:54.056Z,100518.52
2022-08-07T10:10:00.808Z,100522.15
2022-08-07T10:12:53.171Z,100521.30
2022-08-07T10:16:02.295Z,100520.42
2022-08-07T10:18:59.223Z,100517.77
2022-08-07T10:22:12.408Z,100511.91
2022-08-07T10:24:59.504Z,100515.11
2022-08-07T10:27:46.091Z,100514.08
2022-08-07T10:30:19.819Z,100516.36
2022-08-07T10:33:15.026Z,100511.34
2022-08-07T10:36:11.049Z,100515.98
2022-08-07T10:38:51.145Z,100511.24
2022-08-07T10:41:52.119Z,100511.55
2022-08-07T10:44:33.882Z,100511.48
2022-08-07T10:47:31.160Z,100509.83
2022-08-07T10:50:25.891Z,100516.98
2022-08-07T10:53:05.294Z,100513.12
2022-08-07T10:55:45.200Z,100511.05
2022-08-07T10:58:59.382Z,100516.77
2022-08-07T11:01:52.159Z,100512.67
2022-08-07T11:04:50.675Z,100507.61
2022-08-07T11:08:01.369Z,100508.56
2022-08-07T11:10:21.424Z,100508.42
2022-08-07T11:13:02.910Z,100502.14
2022-08-07T11:15:35.884Z,100501.17
2022-08-07T11:18:25.452Z,100503.04
2022-08-07T11:21:06.228Z,100498.22
2022-08-07T11:23:45.889Z,100491.13
2022-08-07T11:26:26.510Z,100487.64
2022-08-07T11:29:05.719Z,100489.76
2022-08-07T11:31:49.584Z,100485.56
2022-08-07T11:34:29.251Z,100480.95
2022-08-07T11:37:11.745Z,100471.20
2022-08-07T11:40:07.492Z,100476.09
2022-08-07T11:42:54.324Z,100468.27
2022-08-07T11:45:35.903Z,100467.72
2022-08-07T11:48:29.669Z,100470.89
2022-08-07T11:51:41.671Z,100461.45
2022-08-07T11:54:22.115Z,100467.02
2022-08-07T11:57:12.644Z,100467.63
2022-08-07T12:00:11.640Z,100472.55
2022-08-07T12:03:44.667Z,100472.56
2022-08-07T12:06:38.918Z,100467.02
2022-08-07T12:09:16.825Z,100472.33
2022-08-07T12:12:09.161Z,100468.16
2022-08-07T12:15:00.147Z,100463.63
2022-08-07T12:17:58.583Z,100463.73
2022-08-07T12:20:35.078Z,100461.55
2022-08-07T12:24:05.518Z,100458.27
2022-08-07T12:26:46.369Z,100453.14
2022-08-07T12:29:38.071Z,100449.29
2022-08-07T12:32:16.041Z,100444.84
2022-08-07T12:34:56.194Z,100447.02
2022-08-07T12:37:28.409Z,100444.05
2022-08-07T12:40:46.865Z,100447.03
2022-08-07T12:44:04.465Z,100444.63
2022-08-07T12:46:15.802Z,100449.11
2022-08-07T12:49:09.754Z,100441.36
2022-08-07T12:52:14.102Z,100433.82
2022-08-07T12:55:02.857Z,100435.92
2022-08-07T12:57:59.502Z,100432.13
2022-08-07T13:00:34.562Z,100436.15
2022-08-07T13:04:00.559Z,100433.81
2022-08-07T13:06:54.264Z,100423.69
2022-08-07T13:10:28.335Z,100417.11
2022-08-07T13:12:52.475Z,100420.10
2022-08-07T13:15:34.147Z,100412.58
2022-08-07T13:18:26.057Z,100408.78
2022-08-07T13:21:02.732Z,100397.10
2022-08-07T13:24:01.502Z,100404.11
2022-08-07T13:26:35.873Z,100412.73
2022-08-07T13:29:12.965Z,100411.05
2022-08-07T13:31:57.716Z,100405.72
2022-08-07T13:34:36.956Z,100403.14
2022-08-07T13:37:20.089Z,100405.98
2022-08-07T13:40:35.611Z,100404.30
2022-08-07T13:43:06.473Z,100397.03
2022-08-07T13:46:12.107Z,100400.52
2022-08-07T13:48:38.399Z,100398.86
2022-08-07T13:51:27.292Z,100391.86
2022-08-07T13:54:03.519Z,100395.31
2022-08-07T13:56:41.404Z,100398.05
2022-08-07T13:59:25.457Z,100394.95
2022-08-07T14:02:07.141Z,100390.59
2022-08-07T14:04:50.091Z,100384.33
2022-08-07T14:07:23.574Z,100385.27
2022-08-07T14:10:01.912Z,100388.13
2022-08-07T14:12:41.645Z,100389.39
2022-08-07T14:15:22.434Z,100395.62
2022-08-07T14:18:28.000Z,100389.52
2022-08-07T14:20:54.588Z,100386.51
2022-08-07T14:23:31.527Z,100391.37
2022-08-07T14:26:29.798Z,100394.15
2022-08-07T14:29:08.798Z,100387.50
2022-08-07T14:31:56.499Z,100381.35
2022-08-07T14:34:30.483Z,100380.69
2022-08-07T14:37:03.139Z,100371.45
2022-08-07T14:40:17.212Z,100378.70
2022-08-07T14:42:31.397Z,100377.14
2022-08-07T14:45:22.340Z,100379.13
2022-08-07T14:47:58.629Z,100379.64
2022-08-07T14:50:37.582Z,100378.02
2022-08-07T14:53:09.779Z,100383.73
2022-08-07T14:55:55.842Z,100379.86
2022-08-07T14:58:31.552Z,100379.89
2022-08-07T15:01:21.347Z,100376.07
2022-08-07T15:03:53.492Z,100373.88
2022-08-07T15:06:27.628Z,100376.66
2022-08-07T15:10:00.765Z,100381.08
2022-08-07T15:12:01.366Z,100375.08
2022-08-07T15:14:32.497Z,100372.27
2022-08-07T15:17:04.384Z,100373.95
2022-08-07T15:22:33.300Z,100382.65
2022-08-07T15:25:18.117Z,100388.09
2022-08-07T15:31:05.433Z,100380.46
2022-08-07T15:33:42.764Z,100377.88
2022-08-07T15:36:14.018Z,100375.65
2022-08-07T15:39:04.570Z,100382.61
2022-08-07T15:42:43.541Z,100379.67
2022-08-07T15:44:51.881Z,100376.84
2022-08-07T15:48:00.129Z,100383.77
2022-08-07T15:51:02.055Z,100386.60
2022-08-07T15:53:12.087Z,100384.48
2022-08-07T15:55:58.773Z,100377.79
2022-08-07T15:58:38.594Z,100378.27
2022-08-07T16:01:14.355Z,100384.56
2022-08-07T16:03:55.670Z,100386.86
2022-08-07T16:06:33.795Z,100389.20
2022-08-07T16:09:13.340Z,100389.96
2022-08-07T16:12:12.243Z,100391.77
2022-08-07T16:14:59.126Z,100392.67
2022-08-07T16:18:02.552Z,100398.17
2022-08-07T16:20:41.979Z,100393.16
2022-08-07T16:23:25.093Z,100396.23
2022-08-07T16:26:30.634Z,100394.48
2022-08-07T16:30:05.456Z,100397.67
2022-08-07T16:32:06.536Z,100392.77
2022-08-07T16:35:06.144Z,100392.93
2022-08-07T16:38:15.071Z,100395.20
2022-08-07T16:41:15.942Z,100396.64
2022-08-07T16:44:47.212Z,100398.31
2022-08-07T16:47:51.216Z,100406.48
2022-08-07T16:51:21.620Z,100403.20
2022-08-07T16:54:06.756Z,100405.73
2022-08-07T16:56:56.992Z,100405.29
2022-08-07T16:59:46.713Z,100409.66
2022-08-07T17:02:52.919Z,100410.56
2022-08-07T17:06:18.815Z,100415.02
2022-08-07T17:09:09.247Z,100417.91
2022-08-07T17:12:04.679Z,100423.88
2022-08-07T17:14:43.668Z,100428.74
2022-08-07T17:17:28.091Z,100431.64
2022-08-07T17:20:22.799Z,100439.62
2022-08-07T17:23:11.609Z,100440.05
2022-08-07T17:26:03.737Z,100447.94
2022-08-07T17:28:38.147Z,100447.45
2022-08-07T17:31:16.508Z,100450.88
2022-08-07T17:34:15.134Z,100451.80
2022-08-07T17:36:57.883Z,100454.09
2022-08-07T17:39:58.778Z,100456.45
2022-08-07T17:42:58.623Z,100458.95
2022-08-07T17:45:34.881Z,100461.16
2022-08-07T17:48:12.637Z,100465.36
2022-08-07T17:50:54.060Z,100467.85
2022-08-07T17:54:02.089Z,100469.84
2022-08-07T17:56:29.483Z,100476.14
2022-08-07T17:59:09.694Z,100483.85
2022-08-07T18:01:57.975Z,100487.83
2022-08-07T18:04:47.944Z,100493.21
2022-08-07T18:07:36.737Z,100491.96
2022-08-07T18:10:32.099Z,100503.84
2022-08-07T18:13:17.563Z,100514.16
2022-08-07T18:16:06.207Z,100516.55
2022-08-07T18:21:00.696Z,100518.88
2022-08-07T18:21:53.546Z,100524.55
2022-08-07T18:24:33.626Z,100530.33
2022-08-07T18:27:38.764Z,100532.55
2022-08-07T18:30:32.389Z,100543.14
2022-08-07T18:33:31.359Z,100550.94
2022-08-07T18:36:14.564Z,100550.34
2022-08-07T18:40:06.709Z,100554.09
2022-08-07T18:42:18.004Z,100564.10
2022-08-07T18:45:43.341Z,100572.41
2022-08-07T18:48:00.901Z,100569.88
2022-08-07T18:50:57.760Z,100584.10
2022-08-07T18:53:43.012Z,100587.79
2022-08-07T18:56:16.315Z,100591.65
2022-08-07T18:59:46.733Z,100592.75
2022-08-07T19:02:32.503Z,100594.61
2022-08-07T19:05:14.862Z,100595.66
2022-08-07T19:07:57.905Z,100600.98
2022-08-07T19:10:51.775Z,100601.92
2022-08-07T19:13:30.355Z,100607.63
2022-08-07T19:17:01.494Z,100606.70
2022-08-07T19:19:03.226Z,100607.20
2022-08-07T19:21:47.394Z,100605.00
2022-08-07T19:24:36.289Z,100608.08
2022-08-07T19:28:30.950Z,100611.65
2022-08-07T19:31:03.821Z,100615.26
2022-08-07T19:32:59.757Z,100618.60
2022-08-07T19:35:33.071Z,100623.73
2022-08-07T19:38:14.903Z,100625.27
2022-08-07T19:40:50.571Z,100632.70
2022-08-07T19:43:43.770Z,100638.83
2022-08-07T19:46:17.837Z,100638.96
2022-08-07T19:48:55.970Z,100645.79
2022-08-07T19:51:52.863Z,100646.82
2022-08-07T19:54:33.550Z,100646.61
2022-08-07T19:58:00.784Z,100644.34
2022-08-07T20:00:08.782Z,100644.90
2022-08-07T20:02:52.330Z,100645.33
2022-08-07T20:06:00.070Z,100647.70
2022-08-07T20:08:26.324Z,100652.54
2022-08-07T20:11:01.845Z,100649.10
2022-08-07T20:13:41.900Z,100657.83
2022-08-07T20:16:35.670Z,100657.82
2022-08-07T20:19:10.099Z,100657.66
2022-08-07T20:21:47.545Z,100656.06
2022-08-07T20:24:21.705Z,100657.95
2022-08-07T20:26:55.792Z,100662.84
2022-08-07T20:29:49.574Z,100657.69
2022-08-07T20:32:23.021Z,100658.78
2022-08-07T20:34:56.859Z,100658.60
2022-08-07T20:37:29.354Z,100662.58
2022-08-07T20:40:04.743Z,100659.65
2022-08-07T20:42:38.944Z,100663.07
2022-08-07T20:45:33.185Z,100666.98
2022-08-07T20:48:02.523Z,100669.52
2022-08-07T20:50:33.118Z,100665.79
2022-08-07T20:53:02.615Z,100667.86
2022-08-07T20:55:35.967Z,100670.20
2022-08-07T20:58:19.311Z,100674.41
2022-08-07T21:00:55.557Z,100680.24
2022-08-07T21:03:26.314Z,100681.77
2022-08-07T21:06:00.203Z,100682.09
2022-08-07T21:08:38.001Z,100683.79
2022-08-07T21:11:12.418Z,100688.86
2022-08-07T21:14:16.793Z,100687.15
2022-08-07T21:16:56.058Z,100687.45
2022-08-07T21:19:32.552Z,100689.29
2022-08-07T21:22:19.353Z,100687.08
2022-08-07T21:25:04.829Z,100686.82
2022-08-07T21:28:01.983Z,100690.67
2022-08-07T21:30:44.017Z,100686.28
2022-08-07T21:33:38.393Z,100684.19
2022-08-07T21:36:31.896Z,100684.87
2022-08-07T21:39:46.628Z,100683.71
2022-08-07T21:42:37.685Z,100681.39
2022-08-07T21:45:08.283Z,100682.90
2022-08-07T21:47:59.690Z,100685.77
2022-08-07T21:50:35.145Z,100680.36
2022-08-07T21:53:12.524Z,100686.64
2022-08-07T21:55:47.536Z,100685.45
2022-08-07T21:58:30.575Z,100684.92
2022-08-07T22:01:08.413Z,100688.09
2022-08-07T22:03:51.726Z,100690.11
2022-08-07T22:06:31.209Z,100686.42
2022-08-07T22:09:07.068Z,100696.33
2022-08-07T22:11:52.942Z,100693.35
2022-08-07T22:14:23.769Z,100692.80
2022-08-07T22:17:07.301Z,100693.57
2022-08-07T22:19:52.652Z,100694.48
2022-08-07T22:22:34.884Z,100698.27
2022-08-07T22:25:15.505Z,100693.04
2022-08-07T22:28:07.285Z,100696.00
2022-08-07T22:30:52.715Z,100702.77
2022-08-07T22:33:52.828Z,100703.39
2022-08-07T22:36:31.868Z,100705.04
2022-08-07T22:39:07.434Z,100711.38
2022-08-07T22:42:03.099Z,100713.38
2022-08-07T22:44:35.820Z,100713.13
2022-08-07T22:47:28.343Z,100711.34
2022-08-07T22:50:29.050Z,100712.73
2022-08-07T22:54:07.528Z,100717.95
2022-08-07T22:56:23.008Z,100714.25
2022-08-07T22:59:40.921Z,100726.14
2022-08-07T23:02:29.876Z,100720.90
2022-08-07T23:06:07.642Z,100724.19
2022-08-07T23:08:30.665Z,100724.05
2022-08-07T23:11:17.658Z,100727.23
2022-08-07T23:14:16.540Z,100730.84
2022-08-07T23:17:15.648Z,100734.23
2022-08-07T23:20:15.240Z,100731.57
2022-08-07T23:22:52.261Z,100726.07
2022-08-07T23:25:32.830Z,100726.11
2022-08-07T23:28:22.047Z,100726.95
2022-08-07T23:31:11.754Z,100723.19
2022-08-07T23:34:36.358Z,100724.70
2022-08-07T23:37:19.128Z,100726.24
2022-08-07T23:40:02.896Z,100731.02
2022-08-07T23:42:54.114Z,100732.97
2022-08-07T23:46:02.657Z,100729.10
2022-08-07T23:48:56.166Z,100733.90
2022-08-07T23:52:58.558Z,100739.23
2022-08-07T23:54:44.596Z,100737.54
2022-08-07T23:57:27.663Z,100739.23
